sensor_id;sensor_type;location;lat;lon;timestamp;temperature;humidity
21115;DHT22;10715;48.546;9.896;2024-01-10T00:01:34;-7.50;99.90
21115;DHT22;10715;48.546;9.896;2024-01-10T00:04:00;-7.50;99.90
21115;DHT22;10715;48.546;9.896;2024-01-10T00:06:26;-7.50;99.90
21115;DHT22;10715;48.546;9.896;2024-01-10T00:08:52;-7.50;99.90
21115;DHT22;10715;48.546;9.896;2024-01-10T00:11:18;-7.50;99.90
21115;DHT22;10715;48.546;9.896;2024-01-10T00:13:47;-7.50;99.90
21115;DHT22;10715;48.546;9.896;2024-01-10T00:16:12;-7.50;99.90
21115;DHT22;10715;48.546;9.896;2024-01-10T00:18:41;-7.50;99.90
21115;DHT22;10715;48.546;9.896;2024-01-10T00:21:07;-7.60;99.90
21115;DHT22;10715;48.546;9.896;2024-01-10T00:23:33;-7.50;99.90
21115;DHT22;10715;48.546;9.896;2024-01-10T00:25:59;-7.50;99.90
21115;DHT22;10715;48.546;9.896;2024-01-10T00:28:25;-7.50;99.90
21115;DHT22;10715;48.546;9.896;2024-01-10T00:30:51;-7.50;99.90
21115;DHT22;10715;48.546;9.896;2024-01-10T00:33:17;-7.60;99.90
21115;DHT22;10715;48.546;9.896;2024-01-10T00:35:43;-7.60;99.90
21115;DHT22;10715;48.546;9.896;2024-01-10T00:38:09;-7.50;99.90
21115;DHT22;10715;48.546;9.896;2024-01-10T00:40:35;-7.50;99.90
21115;DHT22;10715;48.546;9.896;2024-01-10T00:43:01;-7.60;99.90
21115;DHT22;10715;48.546;9.896;2024-01-10T00:45:27;-7.50;99.90
21115;DHT22;10715;48.546;9.896;2024-01-10T00:47:52;-7.50;99.90
21115;DHT22;10715;48.546;9.896;2024-01-10T00:50:18;-7.50;99.90
21115;DHT22;10715;48.546;9.896;2024-01-10T00:52:45;-7.40;99.90
21115;DHT22;10715;48.546;9.896;2024-01-10T00:55:10;-7.40;99.90
21115;DHT22;10715;48.546;9.896;2024-01-10T00:57:36;-7.40;99.90
21115;DHT22;10715;48.546;9.896;2024-01-10T01:00:08;-7.30;99.90
21115;DHT22;10715;48.546;9.896;2024-01-10T01:02:35;-7.30;99.90
21115;DHT22;10715;48.546;9.896;2024-01-10T01:05:01;-7.30;99.90
21115;DHT22;10715;48.546;9.896;2024-01-10T01:07:27;-7.30;99.90
21115;DHT22;10715;48.546;9.896;2024-01-10T01:09:53;-7.30;99.90
21115;DHT22;10715;48.546;9.896;2024-01-10T01:12:19;-7.20;99.90
21115;DHT22;10715;48.546;9.896;2024-01-10T01:14:44;-7.20;99.90
21115;DHT22;10715;48.546;9.896;2024-01-10T01:17:10;-7.30;99.90
21115;DHT22;10715;48.546;9.896;2024-01-10T01:19:36;-7.20;99.90
21115;DHT22;10715;48.546;9.896;2024-01-10T01:22:02;-7.20;99.90
21115;DHT22;10715;48.546;9.896;2024-01-10T01:24:27;-7.20;99.90
21115;DHT22;10715;48.546;9.896;2024-01-10T01:26:53;-7.20;99.90
21115;DHT22;10715;48.546;9.896;2024-01-10T01:29:20;-7.20;99.90
21115;DHT22;10715;48.546;9.896;2024-01-10T01:31:46;-7.20;99.90
21115;DHT22;10715;48.546;9.896;2024-01-10T01:34:11;-7.20;99.90
21115;DHT22;10715;48.546;9.896;2024-01-10T01:36:37;-7.20;99.90
21115;DHT22;10715;48.546;9.896;2024-01-10T01:39:03;-7.20;99.90
21115;DHT22;10715;48.546;9.896;2024-01-10T01:41:29;-7.20;99.90
21115;DHT22;10715;48.546;9.896;2024-01-10T01:43:54;-7.10;99.90
21115;DHT22;10715;48.546;9.896;2024-01-10T01:46:21;-7.20;99.90
21115;DHT22;10715;48.546;9.896;2024-01-10T01:48:47;-7.10;99.90
21115;DHT22;10715;48.546;9.896;2024-01-10T01:51:14;-7.10;99.90
21115;DHT22;10715;48.546;9.896;2024-01-10T01:53:42;-7.10;99.90
21115;DHT22;10715;48.546;9.896;2024-01-10T01:56:10;-7.20;99.90
21115;DHT22;10715;48.546;9.896;2024-01-10T01:58:36;-7.10;99.90
21115;DHT22;10715;48.546;9.896;2024-01-10T02:01:03;-7.20;99.90
21115;DHT22;10715;48.546;9.896;2024-01-10T02:03:34;-7.20;99.90
21115;DHT22;10715;48.546;9.896;2024-01-10T02:06:00;-7.20;99.90
21115;DHT22;10715;48.546;9.896;2024-01-10T02:08:30;-7.20;99.90
21115;DHT22;10715;48.546;9.896;2024-01-10T02:10:57;-7.20;99.90
21115;DHT22;10715;48.546;9.896;2024-01-10T02:13:23;-7.20;99.90
21115;DHT22;10715;48.546;9.896;2024-01-10T02:15:49;-7.20;99.90
21115;DHT22;10715;48.546;9.896;2024-01-10T02:18:15;-7.20;99.90
21115;DHT22;10715;48.546;9.896;2024-01-10T02:20:44;-7.10;99.90
21115;DHT22;10715;48.546;9.896;2024-01-10T02:23:10;-7.10;99.90
21115;DHT22;10715;48.546;9.896;2024-01-10T02:25:37;-7.10;99.90
21115;DHT22;10715;48.546;9.896;2024-01-10T02:28:03;-7.00;99.90
21115;DHT22;10715;48.546;9.896;2024-01-10T02:30:29;-7.00;99.90
21115;DHT22;10715;48.546;9.896;2024-01-10T02:32:54;-7.00;99.90
21115;DHT22;10715;48.546;9.896;2024-01-10T02:35:20;-6.90;99.90
21115;DHT22;10715;48.546;9.896;2024-01-10T02:37:46;-6.90;99.90
21115;DHT22;10715;48.546;9.896;2024-01-10T02:40:12;-6.90;99.90
21115;DHT22;10715;48.546;9.896;2024-01-10T02:42:39;-6.90;99.90
21115;DHT22;10715;48.546;9.896;2024-01-10T02:45:05;-6.90;99.90
21115;DHT22;10715;48.546;9.896;2024-01-10T02:47:31;-6.80;99.90
21115;DHT22;10715;48.546;9.896;2024-01-10T02:49:56;-6.80;99.90
21115;DHT22;10715;48.546;9.896;2024-01-10T02:52:22;-6.80;99.90
21115;DHT22;10715;48.546;9.896;2024-01-10T02:54:48;-6.80;99.90
21115;DHT22;10715;48.546;9.896;2024-01-10T02:57:13;-6.80;99.90
21115;DHT22;10715;48.546;9.896;2024-01-10T02:59:39;-6.70;99.90
21115;DHT22;10715;48.546;9.896;2024-01-10T03:02:05;-6.50;99.90
21115;DHT22;10715;48.546;9.896;2024-01-10T03:04:30;-6.70;99.90
21115;DHT22;10715;48.546;9.896;2024-01-10T03:06:56;-6.70;99.90
21115;DHT22;10715;48.546;9.896;2024-01-10T03:09:25;-6.60;99.90
21115;DHT22;10715;48.546;9.896;2024-01-10T03:11:51;-6.60;99.90
21115;DHT22;10715;48.546;9.896;2024-01-10T03:14:16;-6.60;99.90
21115;DHT22;10715;48.546;9.896;2024-01-10T03:16:42;-6.70;99.90
21115;DHT22;10715;48.546;9.896;2024-01-10T03:19:08;-6.70;99.90
21115;DHT22;10715;48.546;9.896;2024-01-10T03:21:33;-6.70;99.90
21115;DHT22;10715;48.546;9.896;2024-01-10T03:24:00;-6.70;99.90
21115;DHT22;10715;48.546;9.896;2024-01-10T03:26:27;-6.60;99.90
21115;DHT22;10715;48.546;9.896;2024-01-10T03:28:53;-6.60;99.90
21115;DHT22;10715;48.546;9.896;2024-01-10T03:31:20;-6.60;99.90
21115;DHT22;10715;48.546;9.896;2024-01-10T03:33:46;-6.60;99.90
21115;DHT22;10715;48.546;9.896;2024-01-10T03:36:14;-6.60;99.90
21115;DHT22;10715;48.546;9.896;2024-01-10T03:38:40;-6.50;99.90
21115;DHT22;10715;48.546;9.896;2024-01-10T03:41:06;-6.60;99.90
21115;DHT22;10715;48.546;9.896;2024-01-10T03:43:32;-6.60;99.90
21115;DHT22;10715;48.546;9.896;2024-01-10T03:45:58;-6.60;99.90
21115;DHT22;10715;48.546;9.896;2024-01-10T03:48:24;-6.50;99.90
21115;DHT22;10715;48.546;9.896;2024-01-10T03:50:50;-6.50;99.90
21115;DHT22;10715;48.546;9.896;2024-01-10T03:53:16;-6.60;99.90
21115;DHT22;10715;48.546;9.896;2024-01-10T03:55:41;-6.60;99.90
21115;DHT22;10715;48.546;9.896;2024-01-10T03:58:07;-6.60;99.90
21115;DHT22;10715;48.546;9.896;2024-01-10T04:00:33;-6.60;99.90
21115;DHT22;10715;48.546;9.896;2024-01-10T04:02:59;-6.60;99.90
21115;DHT22;10715;48.546;9.896;2024-01-10T04:05:24;-6.70;99.90
21115;DHT22;10715;48.546;9.896;2024-01-10T04:07:51;-6.70;99.90
21115;DHT22;10715;48.546;9.896;2024-01-10T04:10:17;-6.70;99.90
21115;DHT22;10715;48.546;9.896;2024-01-10T04:12:44;-6.70;99.90
21115;DHT22;10715;48.546;9.896;2024-01-10T04:15:11;-6.70;99.90
21115;DHT22;10715;48.546;9.896;2024-01-10T04:17:37;-6.70;99.90
21115;DHT22;10715;48.546;9.896;2024-01-10T04:20:03;-6.70;99.90
21115;DHT22;10715;48.546;9.896;2024-01-10T04:22:29;-6.70;99.90
21115;DHT22;10715;48.546;9.896;2024-01-10T04:24:59;-6.80;99.90
21115;DHT22;10715;48.546;9.896;2024-01-10T04:27:25;-6.70;99.90
21115;DHT22;10715;48.546;9.896;2024-01-10T04:29:51;-6.70;99.90
21115;DHT22;10715;48.546;9.896;2024-01-10T04:32:16;-6.70;99.90
21115;DHT22;10715;48.546;9.896;2024-01-10T04:34:42;-6.70;99.90
21115;DHT22;10715;48.546;9.896;2024-01-10T04:37:08;-6.70;99.90
21115;DHT22;10715;48.546;9.896;2024-01-10T04:39:36;-6.70;99.90
21115;DHT22;10715;48.546;9.896;2024-01-10T04:42:06;-6.70;99.90
21115;DHT22;10715;48.546;9.896;2024-01-10T04:44:32;-6.60;99.90
21115;DHT22;10715;48.546;9.896;2024-01-10T04:46:57;-6.60;99.90
21115;DHT22;10715;48.546;9.896;2024-01-10T04:49:23;-6.60;99.90
21115;DHT22;10715;48.546;9.896;2024-01-10T04:51:50;-6.60;99.90
21115;DHT22;10715;48.546;9.896;2024-01-10T04:54:15;-6.60;99.90
21115;DHT22;10715;48.546;9.896;2024-01-10T04:56:41;-6.70;99.90
21115;DHT22;10715;48.546;9.896;2024-01-10T04:59:07;-6.70;99.90
21115;DHT22;10715;48.546;9.896;2024-01-10T05:01:33;-6.70;99.90
21115;DHT22;10715;48.546;9.896;2024-01-10T05:03:58;-6.70;99.90
21115;DHT22;10715;48.546;9.896;2024-01-10T05:06:24;-6.70;99.90
21115;DHT22;10715;48.546;9.896;2024-01-10T05:08:50;-6.70;99.90
21115;DHT22;10715;48.546;9.896;2024-01-10T05:11:16;-6.60;99.90
21115;DHT22;10715;48.546;9.896;2024-01-10T05:13:43;-6.60;99.90
21115;DHT22;10715;48.546;9.896;2024-01-10T05:16:08;-6.60;99.90
21115;DHT22;10715;48.546;9.896;2024-01-10T05:18:34;-6.60;99.90
21115;DHT22;10715;48.546;9.896;2024-01-10T05:21:00;-6.50;99.90
21115;DHT22;10715;48.546;9.896;2024-01-10T05:23:26;-6.50;99.90
21115;DHT22;10715;48.546;9.896;2024-01-10T05:25:53;-6.50;99.90
21115;DHT22;10715;48.546;9.896;2024-01-10T05:28:19;-6.50;99.90
21115;DHT22;10715;48.546;9.896;2024-01-10T05:30:45;-6.50;99.90
21115;DHT22;10715;48.546;9.896;2024-01-10T05:33:11;-6.40;99.90
21115;DHT22;10715;48.546;9.896;2024-01-10T05:35:40;-6.40;99.90
21115;DHT22;10715;48.546;9.896;2024-01-10T05:38:05;-6.40;99.90
21115;DHT22;10715;48.546;9.896;2024-01-10T05:40:32;-6.40;99.90
21115;DHT22;10715;48.546;9.896;2024-01-10T05:42:58;-6.40;99.90
21115;DHT22;10715;48.546;9.896;2024-01-10T05:45:27;-6.40;99.90
21115;DHT22;10715;48.546;9.896;2024-01-10T05:47:54;-6.40;99.90
21115;DHT22;10715;48.546;9.896;2024-01-10T05:50:20;-6.40;99.90
21115;DHT22;10715;48.546;9.896;2024-01-10T05:52:46;-6.30;99.90
21115;DHT22;10715;48.546;9.896;2024-01-10T05:55:12;-6.30;99.90
21115;DHT22;10715;48.546;9.896;2024-01-10T05:57:39;-6.30;99.90
21115;DHT22;10715;48.546;9.896;2024-01-10T06:00:06;-6.30;99.90
21115;DHT22;10715;48.546;9.896;2024-01-10T06:02:41;-6.30;99.90
21115;DHT22;10715;48.546;9.896;2024-01-10T06:05:11;-6.30;99.90
21115;DHT22;10715;48.546;9.896;2024-01-10T06:07:37;-6.30;99.90
21115;DHT22;10715;48.546;9.896;2024-01-10T06:10:03;-6.30;99.90
21115;DHT22;10715;48.546;9.896;2024-01-10T06:12:30;-6.30;99.90
21115;DHT22;10715;48.546;9.896;2024-01-10T06:14:55;-6.30;99.90
21115;DHT22;10715;48.546;9.896;2024-01-10T06:17:21;-6.30;99.90
21115;DHT22;10715;48.546;9.896;2024-01-10T06:19:47;-6.30;99.90
21115;DHT22;10715;48.546;9.896;2024-01-10T06:22:13;-6.30;99.90
21115;DHT22;10715;48.546;9.896;2024-01-10T06:24:39;-6.20;99.90
21115;DHT22;10715;48.546;9.896;2024-01-10T06:27:06;-6.20;99.90
21115;DHT22;10715;48.546;9.896;2024-01-10T06:29:32;-6.20;99.90
21115;DHT22;10715;48.546;9.896;2024-01-10T06:31:58;-6.20;99.90
21115;DHT22;10715;48.546;9.896;2024-01-10T06:34:26;-6.20;99.90
21115;DHT22;10715;48.546;9.896;2024-01-10T06:36:52;-6.20;99.90
21115;DHT22;10715;48.546;9.896;2024-01-10T06:39:18;-6.20;99.90
21115;DHT22;10715;48.546;9.896;2024-01-10T06:41:47;-6.20;99.90
21115;DHT22;10715;48.546;9.896;2024-01-10T06:44:12;-6.20;99.90
21115;DHT22;10715;48.546;9.896;2024-01-10T06:46:38;-6.20;99.90
21115;DHT22;10715;48.546;9.896;2024-01-10T06:49:04;-6.20;99.90
21115;DHT22;10715;48.546;9.896;2024-01-10T06:51:29;-6.20;99.90
21115;DHT22;10715;48.546;9.896;2024-01-10T06:53:55;-6.20;99.90
21115;DHT22;10715;48.546;9.896;2024-01-10T06:56:28;-6.20;99.90
21115;DHT22;10715;48.546;9.896;2024-01-10T06:58:54;-6.30;99.90
21115;DHT22;10715;48.546;9.896;2024-01-10T07:01:20;-6.30;99.90
21115;DHT22;10715;48.546;9.896;2024-01-10T07:03:47;-6.30;99.90
21115;DHT22;10715;48.546;9.896;2024-01-10T07:06:13;-6.30;99.90
21115;DHT22;10715;48.546;9.896;2024-01-10T07:08:42;-6.30;99.90
21115;DHT22;10715;48.546;9.896;2024-01-10T07:11:10;-6.30;99.90
21115;DHT22;10715;48.546;9.896;2024-01-10T07:13:37;-6.30;99.90
21115;DHT22;10715;48.546;9.896;2024-01-10T07:16:03;-6.20;99.90
21115;DHT22;10715;48.546;9.896;2024-01-10T07:18:29;-6.20;99.90
21115;DHT22;10715;48.546;9.896;2024-01-10T07:20:55;-6.20;99.90
21115;DHT22;10715;48.546;9.896;2024-01-10T07:23:21;-6.20;99.90
21115;DHT22;10715;48.546;9.896;2024-01-10T07:25:49;-6.20;99.90
21115;DHT22;10715;48.546;9.896;2024-01-10T07:28:18;-6.20;99.90
21115;DHT22;10715;48.546;9.896;2024-01-10T07:30:48;-6.20;99.90
21115;DHT22;10715;48.546;9.896;2024-01-10T07:33:13;-6.20;99.90
21115;DHT22;10715;48.546;9.896;2024-01-10T07:35:39;-6.20;99.90
21115;DHT22;10715;48.546;9.896;2024-01-10T07:38:05;-6.20;99.90
21115;DHT22;10715;48.546;9.896;2024-01-10T07:40:33;-6.20;99.90
21115;DHT22;10715;48.546;9.896;2024-01-10T07:42:59;-6.20;99.90
21115;DHT22;10715;48.546;9.896;2024-01-10T07:45:25;-6.20;99.90
21115;DHT22;10715;48.546;9.896;2024-01-10T07:47:51;-6.20;99.90
21115;DHT22;10715;48.546;9.896;2024-01-10T07:50:16;-6.20;99.90
21115;DHT22;10715;48.546;9.896;2024-01-10T07:52:43;-6.20;99.90
21115;DHT22;10715;48.546;9.896;2024-01-10T07:55:09;-6.10;99.90
21115;DHT22;10715;48.546;9.896;2024-01-10T07:57:35;-6.10;99.90
21115;DHT22;10715;48.546;9.896;2024-01-10T08:00:05;-6.10;99.90
21115;DHT22;10715;48.546;9.896;2024-01-10T08:02:33;-6.10;99.90
21115;DHT22;10715;48.546;9.896;2024-01-10T08:05:03;-6.10;99.90
21115;DHT22;10715;48.546;9.896;2024-01-10T08:07:34;-6.10;99.90
21115;DHT22;10715;48.546;9.896;2024-01-10T08:10:07;-6.10;99.90
21115;DHT22;10715;48.546;9.896;2024-01-10T08:12:35;-6.00;99.90
21115;DHT22;10715;48.546;9.896;2024-01-10T08:15:01;-6.00;99.90
21115;DHT22;10715;48.546;9.896;2024-01-10T08:17:27;-5.90;99.90
21115;DHT22;10715;48.546;9.896;2024-01-10T08:19:53;-5.90;99.90
21115;DHT22;10715;48.546;9.896;2024-01-10T08:22:19;-5.90;99.90
21115;DHT22;10715;48.546;9.896;2024-01-10T08:24:46;-5.90;99.90
21115;DHT22;10715;48.546;9.896;2024-01-10T08:27:12;-5.80;99.90
21115;DHT22;10715;48.546;9.896;2024-01-10T08:29:38;-5.80;99.90
21115;DHT22;10715;48.546;9.896;2024-01-10T08:32:04;-5.80;99.90
21115;DHT22;10715;48.546;9.896;2024-01-10T08:34:30;-5.80;99.90
21115;DHT22;10715;48.546;9.896;2024-01-10T08:36:56;-5.80;99.90
21115;DHT22;10715;48.546;9.896;2024-01-10T08:39:21;-5.80;99.90
21115;DHT22;10715;48.546;9.896;2024-01-10T08:41:50;-5.80;99.90
21115;DHT22;10715;48.546;9.896;2024-01-10T08:44:15;-5.80;99.90
21115;DHT22;10715;48.546;9.896;2024-01-10T08:46:41;-5.80;99.90
21115;DHT22;10715;48.546;9.896;2024-01-10T08:49:07;-5.80;99.90
21115;DHT22;10715;48.546;9.896;2024-01-10T08:51:33;-5.80;99.90
21115;DHT22;10715;48.546;9.896;2024-01-10T08:53:59;-5.80;99.90
21115;DHT22;10715;48.546;9.896;2024-01-10T08:56:25;-5.80;99.90
21115;DHT22;10715;48.546;9.896;2024-01-10T08:58:52;-5.80;99.90
21115;DHT22;10715;48.546;9.896;2024-01-10T09:01:18;-5.80;99.90
21115;DHT22;10715;48.546;9.896;2024-01-10T09:03:45;-5.70;99.90
21115;DHT22;10715;48.546;9.896;2024-01-10T09:06:11;-5.70;99.90
21115;DHT22;10715;48.546;9.896;2024-01-10T09:08:37;-5.70;99.90
21115;DHT22;10715;48.546;9.896;2024-01-10T09:11:03;-5.60;99.90
21115;DHT22;10715;48.546;9.896;2024-01-10T09:13:29;-5.60;99.90
21115;DHT22;10715;48.546;9.896;2024-01-10T09:15:55;-5.60;99.90
21115;DHT22;10715;48.546;9.896;2024-01-10T09:18:20;-5.60;99.90
21115;DHT22;10715;48.546;9.896;2024-01-10T09:20:46;-5.60;99.90
21115;DHT22;10715;48.546;9.896;2024-01-10T09:23:13;-5.60;99.90
21115;DHT22;10715;48.546;9.896;2024-01-10T09:25:39;-5.50;99.90
21115;DHT22;10715;48.546;9.896;2024-01-10T09:28:05;-5.50;99.90
21115;DHT22;10715;48.546;9.896;2024-01-10T09:30:31;-5.50;99.90
21115;DHT22;10715;48.546;9.896;2024-01-10T09:32:57;-5.50;99.90
21115;DHT22;10715;48.546;9.896;2024-01-10T09:35:24;-5.50;99.90
21115;DHT22;10715;48.546;9.896;2024-01-10T09:37:50;-5.50;99.90
21115;DHT22;10715;48.546;9.896;2024-01-10T09:40:16;-5.50;99.90
21115;DHT22;10715;48.546;9.896;2024-01-10T09:42:44;-5.40;99.90
21115;DHT22;10715;48.546;9.896;2024-01-10T09:45:11;-5.40;99.90
21115;DHT22;10715;48.546;9.896;2024-01-10T09:47:40;-5.30;99.90
21115;DHT22;10715;48.546;9.896;2024-01-10T09:50:08;-5.30;99.90
21115;DHT22;10715;48.546;9.896;2024-01-10T09:52:43;-5.20;99.90
21115;DHT22;10715;48.546;9.896;2024-01-10T09:55:13;-5.20;99.90
21115;DHT22;10715;48.546;9.896;2024-01-10T09:57:40;-5.20;99.90
21115;DHT22;10715;48.546;9.896;2024-01-10T10:00:06;-5.10;99.90
21115;DHT22;10715;48.546;9.896;2024-01-10T10:02:38;-5.10;99.90
21115;DHT22;10715;48.546;9.896;2024-01-10T10:05:15;-5.10;99.90
21115;DHT22;10715;48.546;9.896;2024-01-10T10:07:49;-5.00;99.90
21115;DHT22;10715;48.546;9.896;2024-01-10T10:10:16;-4.90;99.90
21115;DHT22;10715;48.546;9.896;2024-01-10T10:12:45;-4.90;99.90
21115;DHT22;10715;48.546;9.896;2024-01-10T10:15:13;-4.80;99.90
21115;DHT22;10715;48.546;9.896;2024-01-10T10:17:40;-4.70;99.90
21115;DHT22;10715;48.546;9.896;2024-01-10T10:20:13;-4.70;99.90
21115;DHT22;10715;48.546;9.896;2024-01-10T10:25:07;-4.60;99.90
21115;DHT22;10715;48.546;9.896;2024-01-10T10:27:32;-4.60;99.90
21115;DHT22;10715;48.546;9.896;2024-01-10T10:32:26;-4.40;99.90
21115;DHT22;10715;48.546;9.896;2024-01-10T10:34:52;-4.40;99.90
21115;DHT22;10715;48.546;9.896;2024-01-10T10:37:17;-4.40;99.90
21115;DHT22;10715;48.546;9.896;2024-01-10T10:39:43;-4.30;99.90
21115;DHT22;10715;48.546;9.896;2024-01-10T10:42:09;-4.30;99.90
21115;DHT22;10715;48.546;9.896;2024-01-10T10:47:05;-4.20;99.90
21115;DHT22;10715;48.546;9.896;2024-01-10T10:49:35;-4.20;99.90
21115;DHT22;10715;48.546;9.896;2024-01-10T10:52:01;-4.20;99.90
21115;DHT22;10715;48.546;9.896;2024-01-10T10:54:29;-4.20;99.90
21115;DHT22;10715;48.546;9.896;2024-01-10T11:04:28;-4.10;99.90
21115;DHT22;10715;48.546;9.896;2024-01-10T11:06:54;-4.10;99.90
21115;DHT22;10715;48.546;9.896;2024-01-10T11:09:20;-4.00;99.90
21115;DHT22;10715;48.546;9.896;2024-01-10T11:20:10;-3.90;99.90
21115;DHT22;10715;48.546;9.896;2024-01-10T11:22:43;-3.80;99.90
21115;DHT22;10715;48.546;9.896;2024-01-10T11:25:15;-3.80;99.90
21115;DHT22;10715;48.546;9.896;2024-01-10T11:27:42;-3.80;99.90
21115;DHT22;10715;48.546;9.896;2024-01-10T11:30:10;-3.80;99.90
21115;DHT22;10715;48.546;9.896;2024-01-10T11:32:37;-3.70;99.90
21115;DHT22;10715;48.546;9.896;2024-01-10T11:37:43;-3.70;99.90
21115;DHT22;10715;48.546;9.896;2024-01-10T11:40:09;-3.70;99.90
21115;DHT22;10715;48.546;9.896;2024-01-10T11:42:43;-3.70;99.90
21115;DHT22;10715;48.546;9.896;2024-01-10T11:45:09;-3.70;99.90
21115;DHT22;10715;48.546;9.896;2024-01-10T11:47:38;-3.70;99.90
21115;DHT22;10715;48.546;9.896;2024-01-10T11:50:07;-3.60;99.90
21115;DHT22;10715;48.546;9.896;2024-01-10T11:52:36;-3.60;99.90
21115;DHT22;10715;48.546;9.896;2024-01-10T11:55:02;-3.60;99.90
21115;DHT22;10715;48.546;9.896;2024-01-10T11:57:29;-3.60;99.90
21115;DHT22;10715;48.546;9.896;2024-01-10T11:59:57;-3.60;99.90
21115;DHT22;10715;48.546;9.896;2024-01-10T12:02:25;-3.50;99.90
21115;DHT22;10715;48.546;9.896;2024-01-10T12:04:52;-3.50;99.90
21115;DHT22;10715;48.546;9.896;2024-01-10T12:07:19;-3.50;99.90
21115;DHT22;10715;48.546;9.896;2024-01-10T12:09:45;-3.50;99.90
21115;DHT22;10715;48.546;9.896;2024-01-10T12:12:14;-3.40;99.90
21115;DHT22;10715;48.546;9.896;2024-01-10T12:14:41;-3.40;99.90
21115;DHT22;10715;48.546;9.896;2024-01-10T12:17:08;-3.30;99.90
21115;DHT22;10715;48.546;9.896;2024-01-10T12:19:35;-3.30;99.90
21115;DHT22;10715;48.546;9.896;2024-01-10T12:22:07;-3.20;99.90
21115;DHT22;10715;48.546;9.896;2024-01-10T12:24:33;-3.20;99.90
21115;DHT22;10715;48.546;9.896;2024-01-10T12:26:59;-3.10;99.90
21115;DHT22;10715;48.546;9.896;2024-01-10T12:29:25;-3.00;99.90
21115;DHT22;10715;48.546;9.896;2024-01-10T12:31:51;-3.00;99.90
21115;DHT22;10715;48.546;9.896;2024-01-10T12:34:17;-2.90;99.90
21115;DHT22;10715;48.546;9.896;2024-01-10T12:36:43;-2.90;99.90
21115;DHT22;10715;48.546;9.896;2024-01-10T12:39:09;-2.80;99.90
21115;DHT22;10715;48.546;9.896;2024-01-10T12:41:36;-2.80;99.90
21115;DHT22;10715;48.546;9.896;2024-01-10T12:44:03;-2.80;99.90
21115;DHT22;10715;48.546;9.896;2024-01-10T12:46:30;-2.80;99.90
21115;DHT22;10715;48.546;9.896;2024-01-10T12:49:04;-2.80;99.90
21115;DHT22;10715;48.546;9.896;2024-01-10T12:51:34;-2.80;99.90
21115;DHT22;10715;48.546;9.896;2024-01-10T12:54:02;-2.80;99.90
21115;DHT22;10715;48.546;9.896;2024-01-10T12:56:29;-2.80;99.90
21115;DHT22;10715;48.546;9.896;2024-01-10T12:58:56;-2.70;99.90
21115;DHT22;10715;48.546;9.896;2024-01-10T13:01:23;-2.70;99.90
21115;DHT22;10715;48.546;9.896;2024-01-10T13:03:49;-2.60;99.90
21115;DHT22;10715;48.546;9.896;2024-01-10T13:06:17;-2.60;99.90
21115;DHT22;10715;48.546;9.896;2024-01-10T13:08:45;-2.60;99.90
21115;DHT22;10715;48.546;9.896;2024-01-10T13:11:11;-2.60;99.90
21115;DHT22;10715;48.546;9.896;2024-01-10T13:13:37;-2.60;99.90
21115;DHT22;10715;48.546;9.896;2024-01-10T13:16:03;-2.50;99.90
21115;DHT22;10715;48.546;9.896;2024-01-10T13:18:29;-2.50;99.90
21115;DHT22;10715;48.546;9.896;2024-01-10T13:20:55;-2.50;99.90
21115;DHT22;10715;48.546;9.896;2024-01-10T13:23:21;-2.50;99.90
21115;DHT22;10715;48.546;9.896;2024-01-10T13:25:52;-2.50;99.90
21115;DHT22;10715;48.546;9.896;2024-01-10T13:28:19;-2.50;99.90
21115;DHT22;10715;48.546;9.896;2024-01-10T13:30:45;-2.50;99.90
21115;DHT22;10715;48.546;9.896;2024-01-10T13:33:11;-2.50;99.90
21115;DHT22;10715;48.546;9.896;2024-01-10T13:35:37;-2.50;99.90
21115;DHT22;10715;48.546;9.896;2024-01-10T13:38:03;-2.50;99.90
21115;DHT22;10715;48.546;9.896;2024-01-10T13:40:29;-2.50;99.90
21115;DHT22;10715;48.546;9.896;2024-01-10T13:42:57;-2.40;99.90
21115;DHT22;10715;48.546;9.896;2024-01-10T13:45:23;-2.40;99.90
21115;DHT22;10715;48.546;9.896;2024-01-10T13:47:48;-2.40;99.90
21115;DHT22;10715;48.546;9.896;2024-01-10T13:50:17;-2.30;99.90
21115;DHT22;10715;48.546;9.896;2024-01-10T13:52:42;-2.30;99.90
21115;DHT22;10715;48.546;9.896;2024-01-10T13:55:09;-2.30;99.90
21115;DHT22;10715;48.546;9.896;2024-01-10T13:57:35;-2.30;99.90
21115;DHT22;10715;48.546;9.896;2024-01-10T14:00:01;-2.20;99.90
21115;DHT22;10715;48.546;9.896;2024-01-10T14:02:27;-2.20;99.90
21115;DHT22;10715;48.546;9.896;2024-01-10T14:04:53;-2.20;99.90
21115;DHT22;10715;48.546;9.896;2024-01-10T14:07:25;-2.10;99.90
21115;DHT22;10715;48.546;9.896;2024-01-10T14:09:51;-2.10;99.90
21115;DHT22;10715;48.546;9.896;2024-01-10T14:12:20;-2.10;99.90
21115;DHT22;10715;48.546;9.896;2024-01-10T14:14:46;-2.10;99.90
21115;DHT22;10715;48.546;9.896;2024-01-10T14:17:12;-2.10;99.90
21115;DHT22;10715;48.546;9.896;2024-01-10T14:19:37;-2.10;99.90
21115;DHT22;10715;48.546;9.896;2024-01-10T14:22:04;-2.10;99.90
21115;DHT22;10715;48.546;9.896;2024-01-10T14:24:29;-2.10;99.90
21115;DHT22;10715;48.546;9.896;2024-01-10T14:26:56;-2.10;99.90
21115;DHT22;10715;48.546;9.896;2024-01-10T14:29:21;-2.10;99.90
21115;DHT22;10715;48.546;9.896;2024-01-10T14:31:48;-2.00;99.90
21115;DHT22;10715;48.546;9.896;2024-01-10T14:34:15;-2.00;99.90
21115;DHT22;10715;48.546;9.896;2024-01-10T14:36:41;-2.00;99.90
21115;DHT22;10715;48.546;9.896;2024-01-10T14:39:07;-2.00;99.90
21115;DHT22;10715;48.546;9.896;2024-01-10T14:41:33;-2.00;99.90
21115;DHT22;10715;48.546;9.896;2024-01-10T14:44:00;-2.00;99.90
21115;DHT22;10715;48.546;9.896;2024-01-10T14:46:25;-2.00;99.90
21115;DHT22;10715;48.546;9.896;2024-01-10T14:48:53;-2.00;99.90
21115;DHT22;10715;48.546;9.896;2024-01-10T14:51:19;-2.00;99.90
21115;DHT22;10715;48.546;9.896;2024-01-10T14:53:44;-2.00;99.90
21115;DHT22;10715;48.546;9.896;2024-01-10T14:56:10;-2.00;99.90
21115;DHT22;10715;48.546;9.896;2024-01-10T14:58:36;-2.00;99.90
21115;DHT22;10715;48.546;9.896;2024-01-10T15:01:01;-2.00;99.90
21115;DHT22;10715;48.546;9.896;2024-01-10T15:03:27;-2.10;99.90
21115;DHT22;10715;48.546;9.896;2024-01-10T15:05:53;-2.10;99.90
21115;DHT22;10715;48.546;9.896;2024-01-10T15:08:19;-2.10;99.90
21115;DHT22;10715;48.546;9.896;2024-01-10T15:10:45;-2.10;99.90
21115;DHT22;10715;48.546;9.896;2024-01-10T15:13:11;-2.10;99.90
21115;DHT22;10715;48.546;9.896;2024-01-10T15:15:38;-2.10;99.90
21115;DHT22;10715;48.546;9.896;2024-01-10T15:18:04;-2.20;99.90
21115;DHT22;10715;48.546;9.896;2024-01-10T15:20:31;-2.20;99.90
21115;DHT22;10715;48.546;9.896;2024-01-10T15:22:57;-2.20;99.90
21115;DHT22;10715;48.546;9.896;2024-01-10T15:25:26;-2.20;99.90
21115;DHT22;10715;48.546;9.896;2024-01-10T15:27:52;-2.20;99.90
21115;DHT22;10715;48.546;9.896;2024-01-10T15:30:18;-2.20;99.90
21115;DHT22;10715;48.546;9.896;2024-01-10T15:32:44;-2.30;99.90
21115;DHT22;10715;48.546;9.896;2024-01-10T15:35:10;-2.30;99.90
21115;DHT22;10715;48.546;9.896;2024-01-10T15:37:36;-2.40;99.90
21115;DHT22;10715;48.546;9.896;2024-01-10T15:40:02;-2.40;99.90
21115;DHT22;10715;48.546;9.896;2024-01-10T15:42:32;-2.40;99.90
21115;DHT22;10715;48.546;9.896;2024-01-10T15:44:58;-2.50;99.90
21115;DHT22;10715;48.546;9.896;2024-01-10T15:47:24;-2.50;99.90
21115;DHT22;10715;48.546;9.896;2024-01-10T15:49:50;-2.50;99.90
21115;DHT22;10715;48.546;9.896;2024-01-10T15:52:15;-2.60;99.90